• Join FlightAware (Why Join?)
  • Login
  • US Flag 
01:31AM EST


 

Airport Tracker/Info


-or-


 

Live Flight TrackerFlight Track Log ✈ EJA396 ✈ 22-Jun-2013 ✈ KLEX - KXNA

Flight Track Log - Related Links

Times and Time Zones

All times are in EDT time to prevent confusion due to time zone crossing. See the EJA396 flight status page for this flight to view local times or setup timezone preferences in your user account.

Time Position Orientation Groundspeed Altitude Reporting Facility
EDT Latitude Longitude Course Direction KTS MPH feet Rate Location/Type
01:51PM 38.0000 -84.6461 184° South 227 261 3,400  Level Indianapolis Center
01:52PM 37.9333 -84.6525 184° South 241 277 8,500 3,360 Climbing Indianapolis Center
01:53PM 37.8647 -84.6917 204° Southwest 306 352 10,300 3,360 Climbing Indianapolis Center
01:54PM 37.8428 -84.8264 258° West 330 380 15,400 4,200 Climbing Indianapolis Center
01:55PM 37.8167 -84.9339 253° West 323 372 19,000 2,940 Climbing Indianapolis Center
01:56PM 37.7894 -85.0467 253° West 332 382 21,500 2,100 Climbing Indianapolis Center
01:57PM 37.7583 -85.1744 253° West 371 427 23,400 1,860 Climbing Indianapolis Center
01:58PM 37.7222 -85.3158 252° West 413 475 25,400 1,920 Climbing Indianapolis Center
01:59PM 37.6856 -85.4614 252° West 429 494 27,400 2,040 Climbing Indianapolis Center
02:00PM 37.6508 -85.6344 256° West 445 512 29,700 2,040 Climbing Indianapolis Center
02:01PM 37.6219 -85.7867 257° West 445 512 31,700 1,920 Climbing Indianapolis Center
02:02PM 37.5942 -85.9408 257° West 447 514 33,700 1,080 Climbing Indianapolis Center
02:04PM 37.5636 -86.0986 256° West 457 526 34,000 120 Climbing Indianapolis Center
02:05PM 37.5328 -86.2578 256° West 489 563 34,000  Level Indianapolis Center
02:06PM 37.4956 -86.4519 256° West 488 562 34,000  Level Indianapolis Center
02:07PM 37.4633 -86.6189 256° West 488 562 34,000  Level Indianapolis Center
02:08PM 37.4308 -86.7836 256° West 485 558 34,000  Level Indianapolis Center
02:09PM 37.3983 -86.9506 256° West 487 560 34,000  Level Indianapolis Center
02:10PM 37.3653 -87.1181 256° West 490 564 34,000  Level Indianapolis Center
02:11PM 37.3322 -87.2839 256° West 488 562 34,000  Level Indianapolis Center
02:12PM 37.2975 -87.4525 256° West 494 568 34,000  Level Indianapolis Center
02:13PM 37.2628 -87.6222 256° West 498 573 34,000  Level Indianapolis Center
02:13PM 37.2417 -87.7383 257° West 499 574 34,000  Level Memphis Center
02:14PM 37.2056 -87.9064 255° West 494 568 34,000  Level Memphis Center
02:15PM 37.1753 -88.0686 257° West 494 568 34,000  Level Memphis Center
02:16PM 37.1386 -88.2361 255° West 494 568 34,000  Level Memphis Center
02:17PM 37.1039 -88.4011 255° West 494 568 34,000  Level Memphis Center
02:18PM 37.0689 -88.5656 255° West 494 568 34,000  Level Memphis Center
02:19PM 37.0336 -88.7275 255° West 494 568 34,000  Level Memphis Center
02:20PM 37.0006 -88.9100 257° West 494 568 34,000  Level Memphis Center
02:21PM 36.9772 -89.0767 260° West 494 568 34,000  Level Memphis Center
02:22PM 36.9539 -89.2406 260° West 489 563 34,000  Level Memphis Center
02:23PM 36.9325 -89.4069 261° West 489 563 34,000  Level Memphis Center
02:24PM 36.9086 -89.5733 260° West 489 563 34,000  Level Memphis Center
02:25PM 36.8825 -89.7369 259° West 484 557 34,000  Level Memphis Center
02:26PM 36.8603 -89.9006 260° West 484 557 34,000  Level Memphis Center
02:27PM 36.8336 -90.0639 259° West 484 557 34,000  Level Memphis Center
02:28PM 36.8089 -90.2325 260° West 489 563 34,000  Level Memphis Center
02:29PM 36.7839 -90.3958 259° West 489 563 34,000  Level Memphis Center
02:30PM 36.7567 -90.5642 259° West 489 563 34,000  Level Memphis Center
02:31PM 36.7314 -90.7272 259° West 489 563 34,000  Level Memphis Center
02:32PM 36.7036 -90.8875 258° West 489 563 34,000  Level Memphis Center
02:33PM 36.6800 -91.0503 260° West 489 563 34,000  Level Memphis Center
02:34PM 36.6583 -91.1897 259° West 482 555 34,000  Level Memphis Center
02:35PM 36.6300 -91.3628 259° West 472 543 34,000  Level Memphis Center
02:36PM 36.6078 -91.5150 260° West 461 531 34,000  Level Memphis Center
02:37PM 36.5811 -91.6697 258° West 461 531 34,000  Level Memphis Center
02:38PM 36.5567 -91.8192 259° West 456 525 34,000  Level Memphis Center
02:39PM 36.5319 -91.9683 258° West 451 519 34,000  Level Memphis Center
02:40PM 36.5047 -92.1203 257° West 451 519 34,000  Level Memphis Center
02:41PM 36.4817 -92.2667 259° West 446 513 34,000  Level Memphis Center
02:42PM 36.4608 -92.3981 259° West 439 505 34,000 -300 Level Memphis Center
02:43PM 36.4333 -92.5519 258° West 450 518 33,500 -1,740 Descending Memphis Center
02:44PM 36.4078 -92.6906 257° West 445 512 30,600 -3,000 Descending Memphis Center
02:45PM 36.3819 -92.8394 258° West 440 506 27,600 -2,820 Descending Memphis Center
02:46PM 36.3583 -92.9828 258° West 435 501 25,000 -2,580 Descending Memphis Center
02:47PM 36.3322 -93.1236 257° West 425 489 22,500 -2,520 Descending Memphis Center
02:48PM 36.3147 -93.2597 261° West 418 481 20,000 -2,400 Descending Memphis Center
02:49PM 36.3117 -93.3883 268° West 397 457 17,700 -2,400 Descending Memphis Center
02:50PM 36.3106 -93.5144 269° West 380 437 15,300 -2,220 Descending Memphis Center
02:51PM 36.3217 -93.6436 276° West 375 432 13,300 -2,100 Descending Memphis Center
02:52PM 36.3328 -93.7756 276° West 363 418 11,100 -2,100 Descending Memphis Center
02:53PM 36.3444 -93.8792 278° West 338 389 9,100 -2,100 Descending Memphis Center
02:54PM 36.3544 -93.9722 278° West 303 349 7,000 -2,100 Descending Memphis Center
02:55PM 36.3600 -94.0653 274° West 281 323 5,000 -1,500 Descending Memphis Center
02:56PM 36.3658 -94.1506 275° West 268 308 4,000 -900 Descending Memphis Center
02:57PM 36.3675 -94.2253 272° West 249 287 3,300 -540 Descending Memphis Center
02:58PM 36.3717 -94.2953 274° West 224 258 3,000 -300 Descending Memphis Center
02:59PM 36.3600 -94.3358 250° West 149 171 2,800 -480 Descending Memphis Center
03:00PM 36.3308 -94.3319 174° South 100 115 2,100 -600 Descending Memphis Center
03:01PM 36.3097 -94.3411 199° South 95 109 1,700 -420 Descending Memphis Center